Time;durP1;ratioP1;P1;durP2;ratioP2;P2;SDS_P1;SDS_P2;PMS_P1;PMS_P2;Temp;Humidity;BMP_temperature;BMP_pressure;BME280_temperature;BME280_humidity;BME280_pressure;Samples;Min_cycle;Max_cycle;Signal;HPM_P1;HPM_P2
2023/04/03 00:00:10;;;;;;;1.17;1.00;;;22.00;36.00;;;;;;5074119;28;20048;-58
2023/04/03 00:02:37;;;;;;;0.57;0.57;;;22.00;36.00;;;;;;5075375;28;20132;-58
2023/04/03 00:05:05;;;;;;;1.15;0.70;;;22.00;35.90;;;;;;5074393;28;20114;-58
2023/04/03 00:07:32;;;;;;;0.80;0.80;;;22.00;35.90;;;;;;5075007;28;20055;-58
2023/04/03 00:09:59;;;;;;;0.60;0.60;;;22.00;35.90;;;;;;5074956;28;20516;-59
2023/04/03 00:12:26;;;;;;;0.63;0.63;;;22.00;35.90;;;;;;5075107;28;20052;-58
2023/04/03 00:14:56;;;;;;;0.70;0.70;;;22.00;35.90;;;;;;5073577;28;20152;-58
2023/04/03 00:17:23;;;;;;;0.70;0.70;;;22.00;35.90;;;;;;5075034;28;20416;-58
2023/04/03 00:19:50;;;;;;;0.50;0.50;;;22.00;35.90;;;;;;5074724;28;20503;-58
2023/04/03 00:22:17;;;;;;;0.70;0.70;;;22.00;35.90;;;;;;5074892;28;20051;-58
2023/04/03 00:24:44;;;;;;;0.82;0.82;;;22.00;35.90;;;;;;5074576;28;20067;-59
2023/04/03 00:27:12;;;;;;;0.65;0.65;;;22.00;35.90;;;;;;5074820;28;20080;-58
2023/04/03 00:29:39;;;;;;;0.80;0.80;;;22.00;35.90;;;;;;5074519;28;20556;-59
2023/04/03 00:32:06;;;;;;;0.70;0.70;;;22.00;35.90;;;;;;5074526;28;20067;-58
2023/04/03 00:34:33;;;;;;;0.60;0.60;;;21.90;35.90;;;;;;5073019;28;20059;-58
2023/04/03 00:37:00;;;;;;;0.60;0.60;;;21.90;35.90;;;;;;5074140;28;20041;-58
2023/04/03 00:39:27;;;;;;;0.60;0.60;;;22.00;35.90;;;;;;5074555;28;20405;-59
2023/04/03 00:41:54;;;;;;;0.70;0.70;;;21.90;35.90;;;;;;5074522;28;20045;-59
2023/04/03 00:44:43;;;;;;;0.90;0.90;;;21.90;36.40;;;;;;5074394;28;20048;-59
2023/04/03 00:47:13;;;;;;;0.60;0.60;;;21.90;35.90;;;;;;5059171;28;20131;-59
2023/04/03 00:49:41;;;;;;;0.85;0.85;;;21.90;35.90;;;;;;5074258;28;20139;-58
2023/04/03 00:52:16;;;;;;;0.80;0.80;;;21.90;35.90;;;;;;5073970;28;20443;-59
2023/04/03 00:54:45;;;;;;;0.63;0.63;;;21.90;35.90;;;;;;5072016;28;20049;-58
2023/04/03 00:57:13;;;;;;;0.60;0.60;;;21.90;35.80;;;;;;5073275;28;20051;-58
2023/04/03 00:59:45;;;;;;;0.82;0.82;;;21.90;35.80;;;;;;5074179;28;20359;-58
2023/04/03 01:02:12;;;;;;;0.82;0.82;;;21.90;35.80;;;;;;5074101;28;20053;-58
2023/04/03 01:04:42;;;;;;;0.63;0.60;;;21.90;35.70;;;;;;5073812;28;20481;-58
2023/04/03 01:07:21;;;;;;;0.85;0.80;;;21.90;35.80;;;;;;5072606;28;20040;-58
2023/04/03 01:09:53;;;;;;;0.80;0.80;;;21.90;35.70;;;;;;5073735;28;20412;-58
2023/04/03 01:12:24;;;;;;;1.00;0.90;;;21.90;35.70;;;;;;5073881;28;20052;-58
2023/04/03 01:14:54;;;;;;;1.30;0.82;;;21.90;35.70;;;;;;5072766;28;20044;-58
2023/04/03 01:17:32;;;;;;;0.77;0.77;;;21.90;35.70;;;;;;5073438;28;20049;-58
2023/04/03 01:20:39;;;;;;;0.50;0.50;;;21.90;35.60;;;;;;5072441;28;20059;-58
2023/04/03 01:23:23;;;;;;;0.68;0.68;;;21.80;35.60;;;;;;5082336;28;20048;-59
2023/04/03 01:25:57;;;;;;;0.73;0.73;;;21.80;35.50;;;;;;5073171;28;20137;-59
2023/04/03 01:28:27;;;;;;;0.77;0.77;;;21.80;35.50;;;;;;5073554;28;20404;-58
2023/04/03 01:31:31;;;;;;;0.65;0.65;;;21.80;35.50;;;;;;5073447;28;20049;-58
2023/04/03 01:33:59;;;;;;;0.75;0.70;;;21.80;35.50;;;;;;5073360;28;20125;-58
2023/04/03 01:36:30;;;;;;;0.82;0.82;;;21.80;35.50;;;;;;5073414;28;20058;-57
2023/04/03 01:38:59;;;;;;;0.60;0.60;;;21.80;35.50;;;;;;5091171;28;20044;-58
2023/04/03 01:41:27;;;;;;;0.60;0.60;;;21.80;35.50;;;;;;5092409;28;20060;-57
2023/04/03 01:43:54;;;;;;;0.60;0.60;;;21.80;35.40;;;;;;5092367;28;20472;-58
2023/04/03 01:46:22;;;;;;;0.73;0.73;;;21.80;35.40;;;;;;5093648;28;20052;-58
2023/04/03 01:48:49;;;;;;;0.98;0.70;;;21.80;35.40;;;;;;5093060;28;20043;-58
2023/04/03 01:51:17;;;;;;;0.60;0.60;;;21.80;35.40;;;;;;5092093;28;20131;-58
2023/04/03 01:53:44;;;;;;;0.70;0.70;;;21.80;35.40;;;;;;5093269;28;20119;-58
2023/04/03 01:56:11;;;;;;;0.63;0.60;;;21.80;35.40;;;;;;5092604;28;20492;-58
2023/04/03 01:58:38;;;;;;;0.70;0.70;;;21.80;35.40;;;;;;5093203;28;20489;-58
2023/04/03 02:01:06;;;;;;;0.45;0.45;;;21.80;35.40;;;;;;5092977;28;20048;-58
2023/04/03 02:03:33;;;;;;;0.52;0.52;;;21.80;35.40;;;;;;5093488;28;20040;-58
2023/04/03 02:06:01;;;;;;;0.30;0.30;;;21.80;35.40;;;;;;5092811;28;20043;-58
2023/04/03 02:08:28;;;;;;;0.70;0.70;;;21.80;35.30;;;;;;5093047;28;20143;-57
2023/04/03 02:10:55;;;;;;;0.65;0.60;;;21.80;35.30;;;;;;5092034;28;20048;-58
2023/04/03 02:13:22;;;;;;;0.60;0.60;;;21.80;35.30;;;;;;5092978;28;20382;-58
2023/04/03 02:15:49;;;;;;;0.47;0.40;;;21.80;35.30;;;;;;5091783;28;20048;-57
2023/04/03 02:18:17;;;;;;;0.50;0.50;;;21.80;35.30;;;;;;5091457;28;20064;-58
2023/04/03 02:20:44;;;;;;;0.77;0.77;;;21.80;35.20;;;;;;5091962;28;20048;-58
2023/04/03 02:23:11;;;;;;;0.55;0.55;;;21.80;35.30;;;;;;5098842;28;20051;-58
2023/04/03 02:25:38;;;;;;;0.60;0.60;;;21.80;35.20;;;;;;5098323;28;20484;-56
2023/04/03 02:28:06;;;;;;;0.50;0.50;;;21.90;35.20;;;;;;5099717;28;20043;-58
2023/04/03 02:30:33;;;;;;;0.60;0.60;;;21.80;35.20;;;;;;5098962;28;20439;-58
2023/04/03 02:33:01;;;;;;;0.65;0.60;;;21.80;35.20;;;;;;5099508;28;20503;-58
2023/04/03 02:35:28;;;;;;;0.60;0.60;;;21.80;35.20;;;;;;5099617;28;20131;-58
2023/04/03 02:37:55;;;;;;;0.75;0.60;;;21.80;35.20;;;;;;5099555;28;20451;-58
2023/04/03 02:40:22;;;;;;;0.75;0.75;;;21.80;35.20;;;;;;5099130;28;20131;-58
2023/04/03 02:42:49;;;;;;;0.50;0.50;;;21.80;35.20;;;;;;5098971;28;20457;-57
2023/04/03 02:45:16;;;;;;;0.60;0.60;;;21.80;35.30;;;;;;5099191;28;20139;-57
2023/04/03 02:47:43;;;;;;;0.45;0.45;;;21.80;35.20;;;;;;5095902;28;20047;-57
2023/04/03 02:50:11;;;;;;;0.45;0.45;;;21.80;35.20;;;;;;5079324;28;20139;-57
2023/04/03 02:52:38;;;;;;;0.73;0.73;;;21.80;35.20;;;;;;5079273;28;20045;-57
2023/04/03 02:55:05;;;;;;;0.60;0.60;;;21.80;35.20;;;;;;5079366;28;20055;-57
2023/04/03 02:57:32;;;;;;;0.50;0.50;;;21.80;35.20;;;;;;5077833;28;20563;-58
2023/04/03 03:00:00;;;;;;;0.90;0.57;;;21.80;35.20;;;;;;5079119;28;20048;-57
2023/04/03 03:02:27;;;;;;;0.52;0.50;;;21.80;35.20;;;;;;5078832;28;20049;-58
2023/04/03 03:04:54;;;;;;;0.90;0.70;;;21.80;35.20;;;;;;5079121;28;20049;-58
2023/04/03 03:07:21;;;;;;;0.50;0.50;;;21.80;35.20;;;;;;5078790;28;20056;-57
2023/04/03 03:09:50;;;;;;;0.50;0.50;;;21.80;35.20;;;;;;5078332;28;20135;-58
2023/04/03 03:12:21;;;;;;;1.40;0.80;;;21.80;35.20;;;;;;5078750;28;20059;-58
2023/04/03 03:14:48;;;;;;;0.68;0.68;;;21.80;35.20;;;;;;5079088;28;20539;-58
2023/04/03 03:17:16;;;;;;;1.23;0.60;;;21.80;35.20;;;;;;5078919;28;20497;-58
2023/04/03 03:19:43;;;;;;;0.65;0.65;;;21.80;35.10;;;;;;5078919;28;20514;-58
2023/04/03 03:22:10;;;;;;;0.50;0.50;;;21.80;35.10;;;;;;5078863;28;20481;-58
2023/04/03 03:24:37;;;;;;;0.50;0.50;;;21.70;35.10;;;;;;5078692;28;20127;-58
2023/04/03 03:27:05;;;;;;;0.50;0.50;;;21.80;35.10;;;;;;5077622;28;20098;-57
2023/04/03 03:29:32;;;;;;;0.32;0.32;;;21.80;35.20;;;;;;5078863;28;20041;-58
2023/04/03 03:31:59;;;;;;;0.63;0.57;;;21.80;35.20;;;;;;5090668;28;20048;-57
2023/04/03 03:34:26;;;;;;;0.50;0.50;;;21.70;35.10;;;;;;5074722;28;20056;-58
2023/04/03 03:36:53;;;;;;;0.45;0.45;;;21.70;35.10;;;;;;5075650;28;20556;-58
2023/04/03 03:39:21;;;;;;;0.40;0.32;;;21.70;35.10;;;;;;5075299;28;20052;-58
2023/04/03 03:41:49;;;;;;;0.52;0.52;;;21.70;35.10;;;;;;5075665;28;20048;-57
2023/04/03 03:44:16;;;;;;;0.52;0.50;;;21.70;35.10;;;;;;5075536;28;20049;-57
2023/04/03 03:46:43;;;;;;;0.55;0.52;;;21.70;35.10;;;;;;5077231;28;20049;-58
2023/04/03 03:49:11;;;;;;;0.40;0.40;;;21.70;35.10;;;;;;5079968;28;20109;-58
2023/04/03 03:51:39;;;;;;;0.50;0.50;;;21.70;35.10;;;;;;5075387;28;20049;-56
2023/04/03 03:54:06;;;;;;;0.60;0.60;;;21.70;35.10;;;;;;5075384;28;20048;-57
2023/04/03 03:56:34;;;;;;;0.43;0.43;;;21.70;35.10;;;;;;5074513;28;20070;-58
2023/04/03 03:59:01;;;;;;;0.73;0.70;;;21.70;35.00;;;;;;5083008;28;20046;-58
2023/04/03 04:01:28;;;;;;;0.50;0.50;;;21.70;35.00;;;;;;5094446;28;20054;-58
2023/04/03 04:03:55;;;;;;;1.58;0.50;;;21.70;35.10;;;;;;5075283;28;20401;-58
2023/04/03 04:06:23;;;;;;;0.40;0.40;;;21.70;35.10;;;;;;5074192;28;20056;-57
2023/04/03 04:08:50;;;;;;;0.40;0.38;;;21.70;35.10;;;;;;5075172;28;20045;-58
2023/04/03 04:11:17;;;;;;;0.40;0.40;;;21.70;35.10;;;;;;5075090;28;20054;-58
2023/04/03 04:13:44;;;;;;;1.20;0.50;;;21.70;35.10;;;;;;5077372;28;20070;-58
2023/04/03 04:16:11;;;;;;;0.68;0.68;;;21.80;35.10;;;;;;5088384;28;20051;-58
2023/04/03 04:18:38;;;;;;;0.47;0.47;;;21.70;35.10;;;;;;5079433;28;20421;-58
2023/04/03 04:21:05;;;;;;;0.63;0.63;;;21.70;35.00;;;;;;5074605;28;20107;-58
2023/04/03 04:23:32;;;;;;;0.82;0.38;;;21.70;35.00;;;;;;5084421;28;20413;-58
2023/04/03 04:26:00;;;;;;;0.30;0.30;;;21.80;35.60;;;;;;5089954;28;20139;-58
2023/04/03 04:28:27;;;;;;;0.32;0.32;;;21.80;35.10;;;;;;5089244;28;20059;-57
2023/04/03 04:30:54;;;;;;;0.40;0.40;;;21.80;35.10;;;;;;5087412;28;20059;-57
2023/04/03 04:33:21;;;;;;;0.90;0.43;;;21.80;35.10;;;;;;5079575;28;20526;-57
2023/04/03 04:35:48;;;;;;;0.47;0.47;;;21.80;35.00;;;;;;5082245;28;20058;-57
2023/04/03 04:38:16;;;;;;;0.55;0.55;;;21.80;35.00;;;;;;5077162;28;20040;-57
2023/04/03 04:40:43;;;;;;;0.50;0.50;;;21.70;34.60;;;;;;5088708;28;20404;-57
2023/04/03 04:43:14;;;;;;;0.50;0.50;;;21.70;34.50;;;;;;5081846;28;20504;-57
2023/04/03 04:45:41;;;;;;;0.75;0.70;;;21.70;34.50;;;;;;5083042;28;20062;-57
2023/04/03 04:48:09;;;;;;;0.68;0.60;;;21.70;34.50;;;;;;5094297;28;20076;-57
2023/04/03 04:50:36;;;;;;;0.73;0.70;;;21.70;34.50;;;;;;5094357;28;20048;-58
2023/04/03 04:53:04;;;;;;;0.70;0.52;;;21.70;34.50;;;;;;5089545;28;20399;-57
2023/04/03 04:55:31;;;;;;;0.52;0.52;;;21.70;34.50;;;;;;5093264;28;20426;-57
2023/04/03 04:57:58;;;;;;;0.70;0.70;;;21.70;34.50;;;;;;5084154;28;20467;-57
2023/04/03 05:00:25;;;;;;;0.73;0.63;;;21.70;35.00;;;;;;5073390;28;20055;-57
2023/04/03 05:02:52;;;;;;;0.50;0.50;;;21.70;34.40;;;;;;5074238;28;20456;-58
2023/04/03 05:05:19;;;;;;;0.50;0.50;;;21.70;34.30;;;;;;5084878;28;20044;-57
2023/04/03 05:07:46;;;;;;;0.60;0.60;;;21.80;34.30;;;;;;5089667;28;20056;-57
2023/04/03 05:10:13;;;;;;;0.60;0.60;;;21.80;34.20;;;;;;5082387;28;20047;-57
2023/04/03 05:12:40;;;;;;;0.75;0.70;;;21.80;34.00;;;;;;5078420;28;20059;-57
2023/04/03 05:15:08;;;;;;;0.73;0.73;;;21.80;33.90;;;;;;5080029;28;20048;-57
2023/04/03 05:17:35;;;;;;;0.57;0.55;;;21.90;33.80;;;;;;5083192;28;20102;-56
2023/04/03 05:20:04;;;;;;;2.53;0.70;;;22.00;33.80;;;;;;5079213;28;20044;-59
2023/04/03 05:22:34;;;;;;;2.40;1.23;;;22.00;33.80;;;;;;5078690;28;20101;-56
2023/04/03 05:25:01;;;;;;;1.00;0.85;;;22.00;32.00;;;;;;5075029;28;20053;-58
2023/04/03 05:27:28;;;;;;;4.30;1.13;;;22.00;32.90;;;;;;5079483;28;20051;-57
2023/04/03 05:29:56;;;;;;;0.60;0.60;;;22.00;33.20;;;;;;5083546;28;20059;-58
2023/04/03 05:32:25;;;;;;;0.88;0.88;;;22.00;33.30;;;;;;5083701;28;20520;-61
2023/04/03 05:34:53;;;;;;;1.08;0.80;;;22.10;33.40;;;;;;5080948;28;20040;-58
2023/04/03 05:37:20;;;;;;;0.80;0.80;;;22.20;33.50;;;;;;5084302;28;20101;-57
2023/04/03 05:39:48;;;;;;;1.63;1.08;;;22.20;33.50;;;;;;5080600;28;20397;-58
2023/04/03 05:42:16;;;;;;;1.17;0.85;;;22.30;33.50;;;;;;5076545;28;20044;-57
2023/04/03 05:44:45;;;;;;;3.55;1.15;;;22.30;33.80;;;;;;5077196;28;20072;-58
2023/04/03 05:47:13;;;;;;;2.53;0.87;;;22.40;34.20;;;;;;5074597;28;20465;-56
2023/04/03 05:49:40;;;;;;;1.42;0.80;;;22.40;34.30;;;;;;5077704;28;20096;-57
2023/04/03 05:52:32;;;;;;;2.05;0.90;;;22.50;34.30;;;;;;5080765;28;20121;-58
2023/04/03 05:55:00;;;;;;;0.80;0.73;;;22.50;34.40;;;;;;5080366;28;20143;-56
2023/04/03 05:57:27;;;;;;;0.88;0.80;;;22.60;34.50;;;;;;5074532;28;20135;-58
2023/04/03 05:59:55;;;;;;;2.67;0.75;;;22.60;34.40;;;;;;5077298;28;20047;-57
2023/04/03 06:02:23;;;;;;;0.80;0.80;;;22.60;34.00;;;;;;5078619;28;20066;-56
2023/04/03 06:04:51;;;;;;;0.65;0.60;;;22.70;33.80;;;;;;5080135;28;20138;-54
2023/04/03 06:07:22;;;;;;;1.95;1.05;;;22.70;33.70;;;;;;5081299;28;20043;-57
2023/04/03 06:09:51;;;;;;;2.80;1.00;;;22.80;33.60;;;;;;5082002;28;20048;-58
2023/04/03 06:12:19;;;;;;;1.95;1.00;;;22.90;33.70;;;;;;5079323;28;20052;-57
2023/04/03 06:14:46;;;;;;;0.85;0.85;;;22.90;33.60;;;;;;5077129;28;20040;-59
2023/04/03 06:17:14;;;;;;;1.77;0.77;;;23.00;33.60;;;;;;5081226;28;20048;-58
2023/04/03 06:19:42;;;;;;;2.38;0.75;;;23.00;33.40;;;;;;5078765;28;20048;-57
2023/04/03 06:22:09;;;;;;;0.95;0.80;;;23.00;33.40;;;;;;5080949;28;20044;-56
2023/04/03 06:24:37;;;;;;;1.08;0.98;;;23.10;33.40;;;;;;5077065;28;20079;-59
2023/04/03 06:27:05;;;;;;;1.30;1.20;;;23.20;33.30;;;;;;5076133;28;20080;-57
2023/04/03 06:29:32;;;;;;;0.80;0.80;;;23.20;33.50;;;;;;5076842;28;20080;-58
2023/04/03 06:31:59;;;;;;;1.75;0.82;;;23.30;33.70;;;;;;5075358;28;20052;-58
2023/04/03 06:34:26;;;;;;;1.17;0.90;;;23.30;33.70;;;;;;5079109;28;20048;-58
2023/04/03 06:36:53;;;;;;;2.50;0.93;;;23.40;33.70;;;;;;5079851;28;20043;-59
2023/04/03 06:39:22;;;;;;;0.73;0.70;;;23.40;33.70;;;;;;5074271;28;20448;-58
2023/04/03 06:41:50;;;;;;;1.02;0.93;;;23.50;33.80;;;;;;5081166;28;20052;-58
2023/04/03 06:44:17;;;;;;;1.98;1.00;;;23.60;33.80;;;;;;5079550;28;20496;-56
2023/04/03 06:46:46;;;;;;;3.30;0.80;;;23.60;33.70;;;;;;5079623;28;20056;-58
2023/04/03 06:49:14;;;;;;;1.40;0.80;;;23.60;34.20;;;;;;5081197;28;20051;-54
2023/04/03 06:51:42;;;;;;;1.75;0.80;;;23.70;33.60;;;;;;5075629;28;20091;-57
2023/04/03 06:54:09;;;;;;;0.88;0.80;;;23.70;33.40;;;;;;5075321;28;20131;-57
2023/04/03 06:56:37;;;;;;;1.30;0.90;;;23.70;33.30;;;;;;5082593;28;20087;-58
2023/04/03 06:59:04;;;;;;;1.60;1.02;;;23.80;33.30;;;;;;5079139;28;20047;-58
2023/04/03 07:01:31;;;;;;;1.55;1.00;;;23.90;33.30;;;;;;5076929;28;20439;-58
2023/04/03 07:03:59;;;;;;;4.35;0.90;;;23.90;33.10;;;;;;5075982;28;20047;-57
2023/04/03 07:06:27;;;;;;;1.80;1.08;;;23.90;33.10;;;;;;5060964;28;20175;-58
2023/04/03 07:08:55;;;;;;;16.75;1.75;;;23.90;33.10;;;;;;5083086;28;20066;-55
2023/04/03 07:11:22;;;;;;;61.28;3.88;;;24.00;33.10;;;;;;5078200;28;20508;-56
2023/04/03 07:13:50;;;;;;;36.30;3.35;;;24.00;33.00;;;;;;5080025;28;20044;-58
2023/04/03 07:16:18;;;;;;;23.63;2.55;;;24.10;33.00;;;;;;5077159;28;20067;-57
2023/04/03 07:18:46;;;;;;;36.00;2.88;;;24.10;32.80;;;;;;5080076;28;20492;-58
2023/04/03 07:21:13;;;;;;;33.13;2.33;;;24.10;32.70;;;;;;5081752;28;20131;-58
2023/04/03 07:23:40;;;;;;;23.05;2.28;;;24.20;32.70;;;;;;5083048;28;20126;-56
2023/04/03 07:26:09;;;;;;;15.98;1.90;;;24.30;32.70;;;;;;5083746;28;20082;-58
2023/04/03 07:28:36;;;;;;;18.27;1.90;;;24.30;32.80;;;;;;5080359;28;20058;-58
2023/04/03 07:31:08;;;;;;;7.20;1.65;;;24.30;32.60;;;;;;5085385;28;20048;-62
2023/04/03 07:33:36;;;;;;;15.60;1.70;;;24.40;32.60;;;;;;5087132;28;20046;-59
2023/04/03 07:36:06;;;;;;;9.35;1.10;;;24.40;32.60;;;;;;5081513;28;20114;-58
2023/04/03 07:38:35;;;;;;;10.23;1.85;;;24.50;32.60;;;;;;5082958;28;20131;-58
2023/04/03 07:41:03;;;;;;;3.25;1.83;;;24.50;33.10;;;;;;5086504;28;20052;-58
2023/04/03 07:43:31;;;;;;;3.38;1.27;;;24.60;32.40;;;;;;5085141;28;20048;-58
2023/04/03 07:45:58;;;;;;;3.22;1.50;;;24.60;32.40;;;;;;5083245;28;20048;-58
2023/04/03 07:48:25;;;;;;;2.92;1.40;;;24.70;32.30;;;;;;5088803;28;20078;-58
2023/04/03 07:50:53;;;;;;;1.20;1.10;;;24.70;32.30;;;;;;5081605;28;20058;-57
2023/04/03 07:53:20;;;;;;;3.92;1.20;;;24.80;32.30;;;;;;5079828;28;20047;-65
2023/04/03 07:55:48;;;;;;;2.50;1.33;;;24.80;32.10;;;;;;5082767;28;20052;-57
2023/04/03 07:58:18;;;;;;;2.53;1.30;;;24.80;32.10;;;;;;5082652;28;20055;-59
2023/04/03 08:00:46;;;;;;;2.77;1.57;;;24.90;32.00;;;;;;5082214;28;20052;-56
2023/04/03 08:03:13;;;;;;;2.33;1.60;;;24.90;32.00;;;;;;5076568;28;20048;-58
2023/04/03 08:05:43;;;;;;;3.75;1.20;;;24.90;32.10;;;;;;5085496;28;20040;-58
2023/04/03 08:08:12;;;;;;;1.65;1.40;;;25.00;32.10;;;;;;5085162;28;20135;-64
2023/04/03 08:10:40;;;;;;;5.78;1.77;;;24.90;31.70;;;;;;5068640;28;20052;-57
2023/04/03 08:13:08;;;;;;;1.95;1.20;;;25.00;31.80;;;;;;5080259;28;20044;-53
2023/04/03 08:15:36;;;;;;;3.10;1.13;;;25.00;31.90;;;;;;5083093;28;20530;-58
2023/04/03 08:18:04;;;;;;;2.53;1.20;;;25.00;31.90;;;;;;5081927;28;20044;-58
2023/04/03 08:20:31;;;;;;;4.32;1.45;;;25.00;31.90;;;;;;5079388;28;20045;-57
2023/04/03 08:22:59;;;;;;;1.98;1.30;;;25.00;31.80;;;;;;5083154;28;20067;-57
2023/04/03 08:25:26;;;;;;;1.40;1.30;;;25.00;31.70;;;;;;5086778;28;20477;-58
2023/04/03 08:27:53;;;;;;;1.75;1.17;;;25.00;31.70;;;;;;5085088;28;20456;-58
2023/04/03 08:30:20;;;;;;;1.20;1.08;;;25.00;31.70;;;;;;5083289;28;20044;-58
2023/04/03 08:32:48;;;;;;;3.88;1.50;;;25.00;31.50;;;;;;5082128;28;20048;-56
2023/04/03 08:35:15;;;;;;;1.30;1.00;;;25.00;31.50;;;;;;5080798;28;20047;-58
2023/04/03 08:37:42;;;;;;;3.72;1.40;;;25.00;31.50;;;;;;5080669;28;20510;-58
2023/04/03 08:40:16;;;;;;;1.02;1.02;;;25.00;31.40;;;;;;5081608;28;20522;-59
2023/04/03 08:43:12;;;;;;;3.63;1.40;;;25.00;31.30;;;;;;5080175;28;20058;-51
2023/04/03 08:45:57;;;;;;;3.55;1.27;;;25.00;31.10;;;;;;5082010;28;20052;-57
2023/04/03 08:48:35;;;;;;;2.72;1.40;;;25.00;31.00;;;;;;5079286;28;20134;-57
2023/04/03 08:51:15;;;;;;;1.63;1.40;;;25.00;30.90;;;;;;5082146;28;20048;-58
2023/04/03 08:53:49;;;;;;;;;;;25.10;30.90;;;;;;5080957;28;20153;-56
2023/04/03 08:56:18;;;;;;;1.40;1.30;;;25.10;30.70;;;;;;5078367;28;21599;-57
2023/04/03 08:58:52;;;;;;;1.70;1.60;;;25.10;30.70;;;;;;5080109;28;20548;-57
2023/04/03 09:01:39;;;;;;;2.33;1.73;;;25.10;30.70;;;;;;5074219;28;20161;-58
2023/04/03 09:04:14;;;;;;;2.03;1.30;;;25.10;30.60;;;;;;5076260;28;20052;-54
2023/04/03 09:06:46;;;;;;;1.77;1.17;;;25.20;30.60;;;;;;5078907;28;20275;-52
2023/04/03 09:09:38;;;;;;;3.00;1.50;;;25.20;30.30;;;;;;5076932;28;20047;-54
2023/04/03 09:12:27;;;;;;;1.50;1.40;;;25.30;30.40;;;;;;5085867;28;20048;-55
2023/04/03 09:15:14;;;;;;;1.48;1.30;;;25.30;30.30;;;;;;5084706;28;20048;-57
2023/04/03 09:17:59;;;;;;;2.40;1.40;;;25.40;30.40;;;;;;5080304;28;20055;-58
2023/04/03 09:20:53;;;;;;;3.15;1.75;;;25.40;30.20;;;;;;5085911;28;20049;-58
2023/04/03 09:23:42;;;;;;;4.82;1.45;;;25.50;29.90;;;;;;5086182;28;20142;-57
2023/04/03 09:26:17;;;;;;;2.45;1.45;;;25.50;30.00;;;;;;5081691;28;20522;-58
2023/04/03 09:28:45;;;;;;;3.08;1.50;;;25.60;30.00;;;;;;5075406;28;20047;-59
2023/04/03 09:31:25;;;;;;;1.90;1.33;;;25.60;30.00;;;;;;5073850;28;20052;-58
2023/04/03 09:33:58;;;;;;;2.60;1.45;;;25.70;30.10;;;;;;5079591;28;20048;-58
2023/04/03 09:36:40;;;;;;;2.95;1.80;;;25.70;30.00;;;;;;5075275;28;20050;-58
2023/04/03 09:39:14;;;;;;;1.98;1.35;;;25.70;29.90;;;;;;5072758;28;20341;-58
2023/04/03 09:41:54;;;;;;;2.55;1.40;;;25.70;29.90;;;;;;5077729;28;20052;-57
2023/04/03 09:44:27;;;;;;;1.65;1.35;;;25.70;29.80;;;;;;5079297;28;20130;-57
2023/04/03 09:46:55;;;;;;;3.00;1.80;;;25.80;29.80;;;;;;5078176;28;21196;-58
2023/04/03 09:49:22;;;;;;;2.33;1.77;;;25.80;29.60;;;;;;5079126;28;20135;-55
2023/04/03 09:51:49;;;;;;;4.05;2.08;;;25.90;29.80;;;;;;5080516;28;20722;-56
2023/04/03 09:54:35;;;;;;;3.38;1.73;;;25.90;29.80;;;;;;5079830;28;20048;-55
2023/04/03 09:57:13;;;;;;;3.47;1.38;;;25.90;29.70;;;;;;5079565;28;20126;-58
2023/04/03 09:59:58;;;;;;;3.60;1.67;;;26.00;29.60;;;;;;5077495;28;20528;-57
2023/04/03 10:02:36;;;;;;;3.67;1.60;;;26.00;29.50;;;;;;5077887;28;20075;-57
2023/04/03 10:05:25;;;;;;;2.80;1.40;;;26.00;29.30;;;;;;5079656;28;20473;-58
2023/04/03 10:08:21;;;;;;;3.78;1.60;;;26.10;29.10;;;;;;5078853;28;20052;-57
2023/04/03 10:11:08;;;;;;;2.00;1.73;;;26.10;29.10;;;;;;5082097;28;20048;-55
2023/04/03 10:13:35;;;;;;;3.80;1.70;;;26.10;28.90;;;;;;5064103;28;20056;-57
2023/04/03 10:16:22;;;;;;;2.75;1.70;;;26.10;28.80;;;;;;5080111;28;20056;-56
2023/04/03 10:19:26;;;;;;;2.25;1.45;;;26.10;28.90;;;;;;5076770;28;20040;-58
2023/04/03 10:22:00;;;;;;;6.22;2.45;;;26.10;28.80;;;;;;5079134;28;20052;-59
2023/04/03 10:24:56;;;;;;;1.90;1.52;;;26.10;28.70;;;;;;5074346;28;20068;-59
2023/04/03 10:27:41;;;;;;;2.42;1.80;;;26.10;28.50;;;;;;5076646;28;20138;-59
2023/04/03 10:30:32;;;;;;;2.35;1.58;;;26.10;28.70;;;;;;5076892;28;21047;-57
2023/04/03 10:33:22;;;;;;;1.55;1.27;;;26.10;28.70;;;;;;5081141;28;20105;-56
2023/04/03 10:36:19;;;;;;;3.90;2.10;;;26.10;28.60;;;;;;5079466;28;20497;-56
2023/04/03 10:39:15;;;;;;;1.30;1.20;;;26.00;26.90;;;;;;5081121;28;20127;-56
2023/04/03 10:42:07;;;;;;;2.42;1.45;;;25.80;27.50;;;;;;5079439;28;20054;-55
2023/04/03 10:45:15;;;;;;;4.45;2.40;;;25.80;27.90;;;;;;5082948;28;20082;-55
2023/04/03 10:48:02;;;;;;;3.90;1.65;;;25.90;28.40;;;;;;5083046;28;20051;-55
2023/04/03 10:50:52;;;;;;;1.88;1.40;;;25.90;28.40;;;;;;5085194;28;20412;-56
2023/04/03 10:53:39;;;;;;;4.22;1.20;;;25.90;28.30;;;;;;5084860;28;20436;-55
2023/04/03 10:56:37;;;;;;;2.40;1.45;;;26.00;28.50;;;;;;5078792;28;20051;-54
2023/04/03 10:59:20;;;;;;;4.72;1.20;;;26.00;28.50;;;;;;5083377;28;20491;-53
2023/04/03 11:01:58;;;;;;;1.70;1.60;;;26.00;28.50;;;;;;5074309;28;20064;-54
2023/04/03 11:04:30;;;;;;;5.03;1.30;;;26.00;28.50;;;;;;5084483;28;20044;-55
2023/04/03 11:07:03;;;;;;;4.32;1.63;;;26.10;28.50;;;;;;5083534;28;20078;-55
2023/04/03 11:09:37;;;;;;;2.30;1.60;;;26.10;28.50;;;;;;5083900;28;20105;-52
2023/04/03 11:12:13;;;;;;;1.55;1.15;;;26.10;28.50;;;;;;5082906;28;20049;-57
2023/04/03 11:14:42;;;;;;;2.03;1.35;;;26.10;28.40;;;;;;5082064;28;20048;-57
2023/04/03 11:17:27;;;;;;;1.73;1.50;;;26.10;28.50;;;;;;5084808;28;20047;-56
2023/04/03 11:20:17;;;;;;;2.83;1.90;;;26.10;28.50;;;;;;5081674;28;20135;-50
2023/04/03 11:22:53;;;;;;;1.20;1.10;;;26.10;28.50;;;;;;5085484;28;20050;-54
2023/04/03 11:25:24;;;;;;;6.47;1.88;;;26.10;28.50;;;;;;5084425;28;20048;-56
2023/04/03 11:28:01;;;;;;;2.30;1.33;;;26.20;28.60;;;;;;5084703;28;20052;-55
2023/04/03 11:30:42;;;;;;;2.38;1.55;;;26.20;28.60;;;;;;5081862;28;20532;-49
2023/04/03 11:33:37;;;;;;;2.08;1.63;;;26.20;28.90;;;;;;5083293;28;20055;-51
2023/04/03 11:36:31;;;;;;;1.85;1.50;;;26.20;28.40;;;;;;5082358;28;20044;-56
2023/04/03 11:39:35;;;;;;;1.92;1.35;;;26.20;28.50;;;;;;5082412;28;20041;-50
2023/04/03 11:42:35;;;;;;;1.88;1.70;;;26.20;28.50;;;;;;5083316;28;20048;-57
2023/04/03 11:45:36;;;;;;;2.10;1.48;;;26.10;28.50;;;;;;5083040;28;20048;-59
2023/04/03 11:48:44;;;;;;;3.00;1.55;;;26.20;28.50;;;;;;5079958;28;20051;-56
2023/04/03 11:51:38;;;;;;;3.28;1.48;;;26.10;28.50;;;;;;5073359;28;21036;-56
2023/04/03 11:54:45;;;;;;;1.38;1.27;;;26.10;28.60;;;;;;5068736;28;20032;-56
2023/04/03 11:57:44;;;;;;;2.67;1.50;;;26.10;28.60;;;;;;5080791;28;20131;-58
2023/04/03 12:00:46;;;;;;;3.30;2.05;;;26.10;28.40;;;;;;5081081;28;20562;-58
2023/04/03 12:03:54;;;;;;;1.48;1.38;;;26.20;28.60;;;;;;5080210;28;20044;-56
2023/04/03 12:06:48;;;;;;;2.60;1.40;;;26.20;28.50;;;;;;5085766;28;20040;-56
2023/04/03 12:09:31;;;;;;;1.80;1.60;;;26.20;28.10;;;;;;5082924;28;20044;-58
2023/04/03 12:12:01;;;;;;;1.52;1.42;;;26.20;28.20;;;;;;5081787;28;20058;-58
2023/04/03 12:14:29;;;;;;;1.75;1.60;;;26.20;28.10;;;;;;5081245;28;20044;-58
2023/04/03 12:16:59;;;;;;;2.58;1.70;;;26.20;28.20;;;;;;5079794;28;20054;-57
2023/04/03 12:19:30;;;;;;;;;;;26.20;28.10;;;;;;5080671;28;20068;-58
2023/04/03 12:22:20;;;;;;;2.47;1.70;;;26.20;26.30;;;;;;5080560;28;19973;-57
2023/04/03 12:24:50;;;;;;;3.13;1.70;;;26.10;26.70;;;;;;5081334;28;20076;-58
2023/04/03 12:27:40;;;;;;;1.48;1.38;;;25.90;26.90;;;;;;5081107;28;20552;-56
2023/04/03 12:30:30;;;;;;;4.15;1.90;;;25.90;27.20;;;;;;5080098;28;20516;-55
2023/04/03 12:33:19;;;;;;;1.95;1.75;;;25.90;27.30;;;;;;5084313;28;20102;-59
2023/04/03 12:36:08;;;;;;;1.30;1.20;;;26.00;27.30;;;;;;5084655;28;20507;-58
2023/04/03 12:38:56;;;;;;;5.22;1.90;;;26.10;27.70;;;;;;5081343;28;20426;-59
2023/04/03 12:41:45;;;;;;;1.33;1.23;;;26.10;27.90;;;;;;5082041;28;20044;-56
2023/04/03 12:44:47;;;;;;;4.32;1.70;;;26.10;27.80;;;;;;5071141;28;20058;-57
2023/04/03 12:47:32;;;;;;;2.10;1.67;;;26.10;27.60;;;;;;5075747;28;20126;-58
2023/04/03 12:50:02;;;;;;;1.92;1.55;;;26.20;27.80;;;;;;5074278;28;20052;-60
2023/04/03 12:52:41;;;;;;;5.78;1.83;;;26.20;28.40;;;;;;5073456;28;20059;-58
2023/04/03 12:55:16;;;;;;;3.95;1.75;;;26.20;28.10;;;;;;5075761;28;20135;-59
2023/04/03 12:57:43;;;;;;;3.45;1.55;;;26.30;28.10;;;;;;5079114;28;20048;-59
2023/04/03 13:00:34;;;;;;;3.53;2.13;;;26.30;28.10;;;;;;5080996;28;20060;-58
2023/04/03 13:03:04;;;;;;;1.65;1.40;;;26.40;28.00;;;;;;5080339;28;20056;-59
2023/04/03 13:05:32;;;;;;;2.20;1.40;;;26.40;28.10;;;;;;5078852;28;20051;-58
2023/04/03 13:08:12;;;;;;;2.40;1.40;;;26.50;28.30;;;;;;5081109;28;20348;-58
2023/04/03 13:11:03;;;;;;;5.70;2.53;;;26.50;27.80;;;;;;5080621;28;20144;-58
2023/04/03 13:13:31;;;;;;;3.00;1.73;;;26.50;27.80;;;;;;5080865;28;20131;-57
2023/04/03 13:15:59;;;;;;;2.50;1.40;;;26.50;27.80;;;;;;5079709;28;20040;-58
2023/04/03 13:18:35;;;;;;;1.60;1.10;;;26.60;28.10;;;;;;5076160;28;20146;-58